createdAt,value
2018-05-03T00:00:34.491Z,37.00
2018-05-03T00:03:02.727Z,37.00
2018-05-03T00:05:30.939Z,37.10
2018-05-03T00:07:59.175Z,37.10
2018-05-03T00:10:27.560Z,37.20
2018-05-03T00:12:56.009Z,37.20
2018-05-03T00:15:24.315Z,37.20
2018-05-03T00:17:52.556Z,37.20
2018-05-03T00:20:20.798Z,37.20
2018-05-03T00:22:49.162Z,37.20
2018-05-03T00:25:17.655Z,37.10
2018-05-03T00:27:46.031Z,37.20
2018-05-03T00:30:14.411Z,37.20
2018-05-03T00:32:42.793Z,37.20
2018-05-03T00:35:11.167Z,37.30
2018-05-03T00:37:39.408Z,37.30
2018-05-03T00:40:07.624Z,37.20
2018-05-03T00:42:35.995Z,37.20
2018-05-03T00:45:04.375Z,37.30
2018-05-03T00:47:32.751Z,37.30
2018-05-03T00:50:01.131Z,37.30
2018-05-03T00:52:29.377Z,37.30
2018-05-03T00:54:57.887Z,37.30
2018-05-03T00:57:26.143Z,37.30
2018-05-03T00:59:54.382Z,37.30
2018-05-03T01:02:22.600Z,37.30
2018-05-03T01:04:51.023Z,37.30
2018-05-03T01:07:19.379Z,37.30
2018-05-03T01:09:47.659Z,37.40
2018-05-03T01:12:15.878Z,37.40
2018-05-03T01:14:44.303Z,37.40
2018-05-03T01:17:12.551Z,37.40
2018-05-03T01:19:40.946Z,37.40
2018-05-03T01:22:09.440Z,37.40
2018-05-03T01:24:37.678Z,37.40
2018-05-03T01:27:06.198Z,37.40
2018-05-03T01:29:34.463Z,37.50
2018-05-03T01:32:02.686Z,37.50
2018-05-03T01:34:30.918Z,37.50
2018-05-03T01:37:04.251Z,37.50
2018-05-03T01:39:32.698Z,37.60
2018-05-03T01:42:01.008Z,37.60
2018-05-03T01:44:29.375Z,37.60
2018-05-03T01:46:57.803Z,37.60
2018-05-03T01:49:26.208Z,37.60
2018-05-03T01:51:54.486Z,37.60
2018-05-03T01:54:22.726Z,37.60
2018-05-03T01:56:50.943Z,37.60
2018-05-03T01:59:19.415Z,37.70
2018-05-03T02:01:47.795Z,37.70
2018-05-03T02:04:16.034Z,37.70
2018-05-03T02:06:44.554Z,37.70
2018-05-03T02:09:13.097Z,37.70
2018-05-03T02:11:41.306Z,37.60
2018-05-03T02:14:09.546Z,37.60
2018-05-03T02:16:37.758Z,37.60
2018-05-03T02:19:06.060Z,37.70
2018-05-03T02:21:34.415Z,37.70
2018-05-03T02:24:02.630Z,37.60
2018-05-03T02:26:30.967Z,37.60
2018-05-03T02:28:59.510Z,37.50
2018-05-03T02:31:28.035Z,37.50
2018-05-03T02:33:56.404Z,37.50
2018-05-03T02:36:24.739Z,37.50
2018-05-03T02:38:52.960Z,37.60
2018-05-03T02:41:21.235Z,37.40
2018-05-03T02:43:49.455Z,37.60
2018-05-03T02:46:17.999Z,37.50
2018-05-03T02:48:46.215Z,37.50
2018-05-03T02:51:14.450Z,37.50
2018-05-03T02:53:42.723Z,37.50
2018-05-03T02:56:10.963Z,37.50
2018-05-03T02:58:50.830Z,37.50
2018-05-03T03:01:36.477Z,38.00
2018-05-03T03:04:22.087Z,37.50
2018-05-03T03:10:28.007Z,37.50
2018-05-03T03:16:37.984Z,37.50
2018-05-03T03:19:23.855Z,37.70
2018-05-03T03:22:09.668Z,37.60
2018-05-03T03:24:49.687Z,37.70
2018-05-03T03:27:35.571Z,37.70
2018-05-03T03:30:15.513Z,37.70
2018-05-03T03:33:08.372Z,37.60
2018-05-03T03:35:57.543Z,37.60
2018-05-03T03:38:37.602Z,37.60
2018-05-03T03:41:17.566Z,37.60
2018-05-03T03:43:57.605Z,37.60
2018-05-03T03:46:25.823Z,37.70
2018-05-03T03:48:54.067Z,37.70
2018-05-03T03:51:22.428Z,37.30
2018-05-03T03:53:50.662Z,37.70
2018-05-03T03:56:18.878Z,37.70
2018-05-03T03:58:47.241Z,37.60
2018-05-03T04:01:15.731Z,37.70
2018-05-03T04:03:44.039Z,37.70
2018-05-03T04:06:12.491Z,37.70
2018-05-03T04:08:40.790Z,37.70
2018-05-03T04:11:09.147Z,37.70
2018-05-03T04:13:37.387Z,37.70
2018-05-03T04:16:05.690Z,37.70
2018-05-03T04:18:45.747Z,37.80
2018-05-03T04:21:25.643Z,37.80
2018-05-03T04:24:14.583Z,37.80
2018-05-03T04:26:42.798Z,37.80
2018-05-03T04:29:11.102Z,37.80
2018-05-03T04:31:39.494Z,37.80
2018-05-03T04:34:07.842Z,37.80
2018-05-03T04:36:36.347Z,37.80
2018-05-03T04:39:05.642Z,37.80
2018-05-03T04:41:34.023Z,37.80
2018-05-03T04:44:02.404Z,37.80
2018-05-03T04:46:30.639Z,37.80
2018-05-03T04:48:59.026Z,37.80
2018-05-03T04:51:27.262Z,37.80
2018-05-03T04:53:55.474Z,37.90
2018-05-03T04:56:23.990Z,37.90
2018-05-03T04:58:52.239Z,37.80
2018-05-03T05:01:20.746Z,37.80
2018-05-03T05:03:49.067Z,37.90
2018-05-03T05:06:17.392Z,37.80
2018-05-03T05:08:45.954Z,37.90
2018-05-03T05:11:14.258Z,37.90
2018-05-03T05:13:42.638Z,37.90
2018-05-03T05:16:10.878Z,38.00
2018-05-03T05:18:39.399Z,37.90
2018-05-03T05:21:08.078Z,37.90
2018-05-03T05:23:36.295Z,37.90
2018-05-03T05:26:04.728Z,37.90
2018-05-03T05:28:33.215Z,38.00
2018-05-03T05:31:01.451Z,38.00
2018-05-03T05:33:29.668Z,38.00
2018-05-03T05:35:57.907Z,38.00
2018-05-03T05:38:26.206Z,38.00
2018-05-03T05:40:54.490Z,38.00
2018-05-03T05:43:22.747Z,37.90
2018-05-03T05:45:50.976Z,38.10
2018-05-03T05:48:19.250Z,38.00
2018-05-03T05:50:47.426Z,38.00
2018-05-03T05:53:15.703Z,38.10
2018-05-03T05:55:43.910Z,38.10
2018-05-03T05:58:12.895Z,38.00
2018-05-03T06:00:41.142Z,38.00
2018-05-03T06:03:09.458Z,38.00
2018-05-03T06:05:37.696Z,38.00
2018-05-03T06:08:06.043Z,38.00
2018-05-03T06:10:34.419Z,38.10
2018-05-03T06:13:02.670Z,38.10
2018-05-03T06:15:30.906Z,38.10
2018-05-03T06:17:59.247Z,38.00
2018-05-03T06:20:28.836Z,38.00
2018-05-03T06:22:57.139Z,38.10
2018-05-03T06:25:31.536Z,38.10
2018-05-03T06:28:01.903Z,37.40
2018-05-03T06:30:30.231Z,39.30
2018-05-03T06:32:59.103Z,40.40
2018-05-03T06:35:28.031Z,40.00
2018-05-03T06:37:57.070Z,39.00
2018-05-03T06:40:25.312Z,39.00
2018-05-03T06:42:53.546Z,38.70
2018-05-03T06:45:21.928Z,38.30
2018-05-03T06:47:50.235Z,38.20
2018-05-03T06:50:18.451Z,38.30
2018-05-03T06:52:46.687Z,38.10
2018-05-03T06:55:15.054Z,38.40
2018-05-03T06:57:44.251Z,38.40
2018-05-03T07:00:12.744Z,38.40
2018-05-03T07:02:40.983Z,38.40
2018-05-03T07:05:09.198Z,38.60
2018-05-03T07:07:37.539Z,38.70
2018-05-03T07:10:05.817Z,39.30
2018-05-03T07:12:34.417Z,39.30
2018-05-03T07:15:02.546Z,39.10
2018-05-03T07:17:30.783Z,39.10
2018-05-03T07:19:59.070Z,40.10
2018-05-03T07:22:27.422Z,39.70
2018-05-03T07:24:55.643Z,39.40
2018-05-03T07:27:23.902Z,39.50
2018-05-03T07:29:52.232Z,39.70
2018-05-03T07:32:20.628Z,39.70
2018-05-03T07:34:48.887Z,39.70
2018-05-03T07:37:17.186Z,40.00
2018-05-03T07:39:45.566Z,39.80
2018-05-03T07:42:13.811Z,39.40
2018-05-03T07:44:42.030Z,39.50
2018-05-03T07:47:10.323Z,40.90
2018-05-03T07:49:38.642Z,39.50
2018-05-03T07:52:06.967Z,39.50
2018-05-03T07:54:35.230Z,39.90
2018-05-03T07:57:03.524Z,39.50
2018-05-03T07:59:31.850Z,39.60
2018-05-03T08:02:00.171Z,40.30
2018-05-03T08:04:28.915Z,41.60
2018-05-03T08:06:57.927Z,40.50
2018-05-03T08:09:26.142Z,40.40
2018-05-03T08:11:54.387Z,40.70
2018-05-03T08:14:22.877Z,40.80
2018-05-03T08:16:51.293Z,40.80
2018-05-03T08:19:19.614Z,40.50
2018-05-03T08:21:47.814Z,40.30
2018-05-03T08:24:16.103Z,41.10
2018-05-03T08:26:44.315Z,40.30
2018-05-03T08:29:12.558Z,40.40
2018-05-03T08:31:40.919Z,39.70
2018-05-03T08:34:09.374Z,38.50
2018-05-03T08:36:37.618Z,38.20
2018-05-03T08:39:05.858Z,37.30
2018-05-03T08:41:34.206Z,36.80
2018-05-03T08:44:02.767Z,36.80
2018-05-03T08:46:31.137Z,35.80
2018-05-03T08:48:59.378Z,35.80
2018-05-03T08:51:27.620Z,35.50
2018-05-03T08:53:56.164Z,34.70
2018-05-03T08:56:24.434Z,34.90
2018-05-03T08:58:52.858Z,34.80
2018-05-03T09:01:21.191Z,34.30
2018-05-03T09:03:49.519Z,33.00
2018-05-03T09:06:17.851Z,33.30
2018-05-03T09:08:46.445Z,33.00
2018-05-03T09:11:14.649Z,32.20
2018-05-03T09:13:43.118Z,31.80
2018-05-03T09:16:11.403Z,32.30
2018-05-03T09:18:39.746Z,32.20
2018-05-03T09:21:08.143Z,32.70
2018-05-03T09:23:36.626Z,32.40
2018-05-03T09:26:08.675Z,31.80
2018-05-03T09:28:36.951Z,31.20
2018-05-03T09:31:05.398Z,31.30
2018-05-03T09:33:33.618Z,32.00
2018-05-03T09:36:01.903Z,32.30
2018-05-03T09:38:30.182Z,31.20
2018-05-03T09:40:58.467Z,31.20
2018-05-03T09:43:26.925Z,31.40
2018-05-03T09:45:55.198Z,31.00
2018-05-03T09:48:23.558Z,31.40
2018-05-03T09:50:51.819Z,31.40
2018-05-03T09:53:21.063Z,32.30
2018-05-03T09:55:49.350Z,32.30
2018-05-03T09:58:17.575Z,32.30
2018-05-03T10:00:45.825Z,31.40
2018-05-03T10:03:14.178Z,31.20
2018-05-03T10:05:42.572Z,31.80
2018-05-03T10:08:10.795Z,31.70
2018-05-03T10:10:39.047Z,31.20
2018-05-03T10:13:07.338Z,31.60
2018-05-03T10:15:35.566Z,31.80
2018-05-03T10:18:04.150Z,31.80
2018-05-03T10:20:32.607Z,32.50
2018-05-03T10:23:00.879Z,31.80
2018-05-03T10:25:29.231Z,31.70
2018-05-03T10:27:57.642Z,31.30
2018-05-03T10:30:26.013Z,32.60
2018-05-03T10:32:54.253Z,31.10
2018-05-03T10:35:22.479Z,31.40
2018-05-03T10:37:50.938Z,31.00
2018-05-03T10:40:19.212Z,31.10
2018-05-03T10:42:47.592Z,31.00
2018-05-03T10:45:15.806Z,30.90
2018-05-03T10:47:44.051Z,31.30
2018-05-03T10:50:12.519Z,32.50
2018-05-03T10:52:40.786Z,31.20
2018-05-03T10:55:09.965Z,32.10
2018-05-03T10:57:38.207Z,32.10
2018-05-03T11:00:06.552Z,32.10
2018-05-03T11:02:35.590Z,32.00
2018-05-03T11:05:03.801Z,32.00
2018-05-03T11:07:32.037Z,32.10
2018-05-03T11:10:00.258Z,31.70
2018-05-03T11:12:29.069Z,31.00
2018-05-03T11:14:57.285Z,30.40
2018-05-03T11:17:25.526Z,30.50
2018-05-03T11:19:53.746Z,30.00
2018-05-03T11:22:23.189Z,29.70
2018-05-03T11:24:51.482Z,30.10
2018-05-03T11:27:19.845Z,30.90
2018-05-03T11:29:48.314Z,29.50
2018-05-03T11:32:16.587Z,28.90
2018-05-03T11:34:45.008Z,28.20
2018-05-03T11:37:13.444Z,28.00
2018-05-03T11:39:42.480Z,27.70
2018-05-03T11:42:10.723Z,27.70
2018-05-03T11:44:38.970Z,27.60
2018-05-03T11:47:07.178Z,27.30
2018-05-03T11:49:35.402Z,27.00
2018-05-03T11:52:03.618Z,27.40
2018-05-03T11:54:31.930Z,28.30
2018-05-03T11:57:00.135Z,28.00
2018-05-03T11:59:28.484Z,28.40
2018-05-03T12:01:56.682Z,28.10
2018-05-03T12:04:25.806Z,28.30
2018-05-03T12:06:54.057Z,28.30
2018-05-03T12:09:22.272Z,28.80
2018-05-03T12:11:50.807Z,28.80
2018-05-03T12:14:19.118Z,28.70
2018-05-03T12:16:47.366Z,28.60
2018-05-03T12:19:15.882Z,28.30
2018-05-03T12:21:44.130Z,29.00
2018-05-03T12:24:12.630Z,28.60
2018-05-03T12:26:41.615Z,29.30
2018-05-03T12:29:10.684Z,29.80
2018-05-03T12:31:38.870Z,29.80
2018-05-03T12:34:07.088Z,29.70
2018-05-03T12:36:35.339Z,30.30
2018-05-03T12:39:03.826Z,29.70
2018-05-03T12:41:32.211Z,28.90
2018-05-03T12:44:00.482Z,28.70
2018-05-03T12:46:28.959Z,28.80
2018-05-03T12:48:57.182Z,29.00
2018-05-03T12:51:25.615Z,29.20
2018-05-03T12:53:53.843Z,30.00
2018-05-03T12:56:22.858Z,29.60
2018-05-03T12:58:51.073Z,30.00
2018-05-03T13:01:19.458Z,29.20
2018-05-03T13:03:47.687Z,29.80
2018-05-03T13:06:15.940Z,29.40
2018-05-03T13:08:44.367Z,29.10
2018-05-03T13:11:12.616Z,29.30
2018-05-03T13:13:41.132Z,29.90
2018-05-03T13:16:09.375Z,30.00
2018-05-03T13:18:37.786Z,30.10
2018-05-03T13:21:06.089Z,29.90
2018-05-03T13:23:34.502Z,30.00
2018-05-03T13:26:02.751Z,28.90
2018-05-03T13:28:43.568Z,30.00
2018-05-03T13:31:14.424Z,29.90
2018-05-03T13:33:42.782Z,30.00
2018-05-03T13:36:11.270Z,29.90
2018-05-03T13:38:39.514Z,29.80
2018-05-03T13:41:07.963Z,30.00
2018-05-03T13:43:36.150Z,30.00
2018-05-03T13:46:04.389Z,29.50
2018-05-03T13:48:32.761Z,30.00
2018-05-03T13:51:01.119Z,29.20
2018-05-03T13:53:29.402Z,29.00
2018-05-03T13:55:57.680Z,29.30
2018-05-03T13:58:25.927Z,30.70
2018-05-03T14:00:54.227Z,29.80
2018-05-03T14:03:22.506Z,29.70
2018-05-03T14:05:50.882Z,30.30
2018-05-03T14:08:19.137Z,30.50
2018-05-03T14:10:47.395Z,30.00
2018-05-03T14:13:15.616Z,29.80
2018-05-03T14:15:43.951Z,29.80
2018-05-03T14:18:12.167Z,30.10
2018-05-03T14:20:40.446Z,30.00
2018-05-03T14:23:08.688Z,31.00
2018-05-03T14:25:36.909Z,30.90
2018-05-03T14:28:05.228Z,31.70
2018-05-03T14:30:33.754Z,32.90
2018-05-03T14:33:02.051Z,32.50
2018-05-03T14:35:30.390Z,31.40
2018-05-03T14:37:58.868Z,30.80
2018-05-03T14:40:27.265Z,32.10
2018-05-03T14:42:55.558Z,30.50
2018-05-03T14:45:23.905Z,30.20
2018-05-03T14:47:52.399Z,30.70
2018-05-03T14:50:20.671Z,31.10
2018-05-03T14:52:49.151Z,30.60
2018-05-03T14:55:17.474Z,30.10
2018-05-03T14:57:45.678Z,29.70
2018-05-03T15:00:13.974Z,29.80
2018-05-03T15:02:42.373Z,29.80
2018-05-03T15:05:10.731Z,29.50
2018-05-03T15:07:39.688Z,30.50
2018-05-03T15:10:07.903Z,29.50
2018-05-03T15:12:36.723Z,29.30
2018-05-03T15:15:05.074Z,29.40
2018-05-03T15:17:33.315Z,29.20
2018-05-03T15:20:01.555Z,29.00
2018-05-03T15:22:29.915Z,29.20
2018-05-03T15:24:58.230Z,28.60
2018-05-03T15:27:26.505Z,29.30
2018-05-03T15:29:54.707Z,29.00
2018-05-03T15:32:23.194Z,28.90
2018-05-03T15:34:51.492Z,28.80
2018-05-03T15:37:19.730Z,28.50
2018-05-03T15:39:47.963Z,28.20
2018-05-03T15:42:16.202Z,29.50
2018-05-03T15:44:44.583Z,28.70
2018-05-03T15:47:12.751Z,29.90
2018-05-03T15:49:41.135Z,30.00
2018-05-03T15:52:09.495Z,30.00
2018-05-03T15:54:37.907Z,30.20
2018-05-03T15:57:06.146Z,29.30
2018-05-03T15:59:34.371Z,30.10
2018-05-03T16:02:02.722Z,29.70
2018-05-03T16:04:30.947Z,30.50
2018-05-03T16:06:59.243Z,30.90
2018-05-03T16:09:28.253Z,30.50
2018-05-03T16:11:56.571Z,30.50
2018-05-03T16:14:25.199Z,30.00
2018-05-03T16:16:53.555Z,30.30
2018-05-03T16:19:21.934Z,30.30
2018-05-03T16:21:50.312Z,30.30
2018-05-03T16:24:18.690Z,30.00
2018-05-03T16:26:46.882Z,30.00
2018-05-03T16:29:16.092Z,28.20
2018-05-03T16:31:44.583Z,28.10
2018-05-03T16:34:12.897Z,27.70
2018-05-03T16:36:41.211Z,26.90
2018-05-03T16:39:09.731Z,27.40
2018-05-03T16:41:37.987Z,28.10
2018-05-03T16:44:06.231Z,28.30
2018-05-03T16:46:34.455Z,28.30
2018-05-03T16:49:02.694Z,28.30
2018-05-03T16:51:30.919Z,28.30
2018-05-03T16:53:59.152Z,28.40
2018-05-03T16:56:27.375Z,28.50
2018-05-03T16:58:55.702Z,28.70
2018-05-03T17:01:24.194Z,29.00
2018-05-03T17:03:52.434Z,29.00
2018-05-03T17:06:20.657Z,29.10
2018-05-03T17:08:49.029Z,29.30
2018-05-03T17:11:17.302Z,29.60
2018-05-03T17:13:45.670Z,29.80
2018-05-03T17:16:14.055Z,29.90
2018-05-03T17:18:42.398Z,29.80
2018-05-03T17:21:10.787Z,30.00
2018-05-03T17:23:39.026Z,30.10
2018-05-03T17:26:07.246Z,30.30
2018-05-03T17:28:35.557Z,30.40
2018-05-03T17:31:03.815Z,30.40
2018-05-03T17:33:32.200Z,30.60
2018-05-03T17:36:00.426Z,30.80
2018-05-03T17:38:28.950Z,30.80
2018-05-03T17:40:57.171Z,30.90
2018-05-03T17:43:25.797Z,30.90
2018-05-03T17:45:53.986Z,30.90
2018-05-03T17:48:22.323Z,31.00
2018-05-03T17:50:50.511Z,31.30
2018-05-03T17:53:19.830Z,31.50
2018-05-03T17:55:48.079Z,31.40
2018-05-03T17:58:16.294Z,31.50
2018-05-03T18:00:44.550Z,31.60
2018-05-03T18:03:12.785Z,31.80
2018-05-03T18:05:41.119Z,31.80
2018-05-03T18:08:09.330Z,32.10
2018-05-03T18:10:37.755Z,32.00
2018-05-03T18:13:06.050Z,32.00
2018-05-03T18:15:34.319Z,32.10
2018-05-03T18:18:02.539Z,32.10
2018-05-03T18:20:30.775Z,32.30
2018-05-03T18:22:59.047Z,32.20
2018-05-03T18:25:27.386Z,32.30
2018-05-03T18:27:55.605Z,32.40
2018-05-03T18:30:23.863Z,32.40
2018-05-03T18:32:52.253Z,32.40
2018-05-03T18:35:20.460Z,32.40
2018-05-03T18:37:48.674Z,32.50
2018-05-03T18:40:17.117Z,32.50
2018-05-03T18:42:45.324Z,32.60
2018-05-03T18:45:14.326Z,32.70
2018-05-03T18:47:42.543Z,32.70
2018-05-03T18:50:10.926Z,32.70
2018-05-03T18:52:39.391Z,32.70
2018-05-03T18:55:07.631Z,32.80
2018-05-03T18:57:36.139Z,32.90
2018-05-03T19:00:04.525Z,32.90
2018-05-03T19:02:32.839Z,33.00
2018-05-03T19:05:01.079Z,33.00
2018-05-03T19:07:29.355Z,33.00
2018-05-03T19:09:57.647Z,33.10
2018-05-03T19:12:26.002Z,33.10
2018-05-03T19:14:54.366Z,33.10
2018-05-03T19:17:22.871Z,33.20
2018-05-03T19:19:51.435Z,33.20
2018-05-03T19:22:19.862Z,33.30
2018-05-03T19:24:48.102Z,33.30
2018-05-03T19:27:16.318Z,33.40
2018-05-03T19:29:44.754Z,33.40
2018-05-03T19:32:12.994Z,33.40
2018-05-03T19:34:41.511Z,33.50
2018-05-03T19:37:09.795Z,33.60
2018-05-03T19:39:38.035Z,33.60
2018-05-03T19:42:06.262Z,33.60
2018-05-03T19:44:34.658Z,33.60
2018-05-03T19:47:02.959Z,33.60
2018-05-03T19:49:31.177Z,33.70
2018-05-03T19:51:59.714Z,33.70
2018-05-03T19:54:27.927Z,33.80
2018-05-03T19:56:56.163Z,33.80
2018-05-03T19:59:24.678Z,33.90
2018-05-03T20:01:52.947Z,33.90
2018-05-03T20:04:21.306Z,33.90
2018-05-03T20:06:49.551Z,34.00
2018-05-03T20:09:17.767Z,34.00
2018-05-03T20:11:46.106Z,34.00
2018-05-03T20:14:14.506Z,34.00
2018-05-03T20:16:43.019Z,34.00
2018-05-03T20:19:11.359Z,34.10
2018-05-03T20:21:39.667Z,34.20
2018-05-03T20:24:08.154Z,34.20
2018-05-03T20:26:36.423Z,34.20
2018-05-03T20:29:04.651Z,34.30
2018-05-03T20:31:32.891Z,34.30
2018-05-03T20:34:01.107Z,34.30
2018-05-03T20:36:29.360Z,34.30
2018-05-03T20:38:57.715Z,34.30
2018-05-03T20:41:25.951Z,34.40
2018-05-03T20:43:54.166Z,34.40
2018-05-03T20:46:22.403Z,34.50
2018-05-03T20:48:50.623Z,34.50
2018-05-03T20:51:18.862Z,34.60
2018-05-03T20:53:47.074Z,34.60
2018-05-03T20:56:15.462Z,34.60
2018-05-03T20:58:43.792Z,34.50
2018-05-03T21:01:12.027Z,34.60
2018-05-03T21:03:40.242Z,34.60
2018-05-03T21:06:08.478Z,34.70
2018-05-03T21:08:36.794Z,34.70
2018-05-03T21:11:05.799Z,34.80
2018-05-03T21:13:34.836Z,34.80
2018-05-03T21:16:03.071Z,34.70
2018-05-03T21:18:31.458Z,34.80
2018-05-03T21:20:59.825Z,34.70
2018-05-03T21:23:28.314Z,34.80
2018-05-03T21:25:56.552Z,34.90
2018-05-03T21:28:24.938Z,34.90
2018-05-03T21:30:53.450Z,34.90
2018-05-03T21:33:21.667Z,34.90
2018-05-03T21:35:49.902Z,34.80
2018-05-03T21:38:18.203Z,34.90
2018-05-03T21:40:46.418Z,34.90
2018-05-03T21:43:15.423Z,35.00
2018-05-03T21:45:43.635Z,35.00
2018-05-03T21:48:11.871Z,35.00
2018-05-03T21:50:40.087Z,35.00
2018-05-03T21:53:08.434Z,35.10
2018-05-03T21:55:36.798Z,35.00
2018-05-03T21:58:05.052Z,35.00
2018-05-03T22:00:33.263Z,35.10
2018-05-03T22:03:01.506Z,35.10
2018-05-03T22:05:29.718Z,35.10
2018-05-03T22:07:58.095Z,35.10
2018-05-03T22:10:26.307Z,35.20
2018-05-03T22:12:54.663Z,35.20
2018-05-03T22:15:22.908Z,35.20
2018-05-03T22:17:51.415Z,35.20
2018-05-03T22:20:19.729Z,35.20
2018-05-03T22:22:48.171Z,35.20
2018-05-03T22:25:16.457Z,35.20
2018-05-03T22:27:44.927Z,35.20
2018-05-03T22:30:13.239Z,35.20
2018-05-03T22:32:41.487Z,35.30
2018-05-03T22:35:09.699Z,35.30
2018-05-03T22:37:37.926Z,35.40
2018-05-03T22:40:06.142Z,35.40
2018-05-03T22:42:34.382Z,35.40
2018-05-03T22:45:02.599Z,35.40
2018-05-03T22:47:30.958Z,35.40
2018-05-03T22:50:00.068Z,35.40
2018-05-03T22:52:28.410Z,35.50
2018-05-03T22:54:56.734Z,35.50
2018-05-03T22:57:24.928Z,35.50
2018-05-03T22:59:53.138Z,35.50
2018-05-03T23:02:21.378Z,35.50
2018-05-03T23:04:49.602Z,35.60
2018-05-03T23:07:17.951Z,35.50
2018-05-03T23:09:46.434Z,35.50
2018-05-03T23:12:14.675Z,35.50
2018-05-03T23:14:43.066Z,35.60
2018-05-03T23:17:11.299Z,35.50
2018-05-03T23:19:39.525Z,35.50
2018-05-03T23:22:07.735Z,35.50
2018-05-03T23:24:36.016Z,35.60
2018-05-03T23:27:04.374Z,35.60
2018-05-03T23:29:32.859Z,35.60
2018-05-03T23:32:01.079Z,35.70
2018-05-03T23:34:29.307Z,35.70
2018-05-03T23:36:57.518Z,35.70
2018-05-03T23:39:25.812Z,35.70
2018-05-03T23:41:53.967Z,35.70
2018-05-03T23:44:22.495Z,35.70
2018-05-03T23:46:51.501Z,35.80
2018-05-03T23:49:19.762Z,35.60
2018-05-03T23:51:48.158Z,35.80
2018-05-03T23:54:16.520Z,35.70
2018-05-03T23:56:44.914Z,35.70
2018-05-03T23:59:13.165Z,35.80
